sensor_id;sensor_type;location;lat;lon;timestamp;P1;durP1;ratioP1;P2;durP2;ratioP2
8319;SDS011;4197;42.130;24.746;2022-09-20T00:01:26;2.97;;;1.13;;
8319;SDS011;4197;42.130;24.746;2022-09-20T00:03:58;2.27;;;1.20;;
8319;SDS011;4197;42.130;24.746;2022-09-20T00:06:28;4.67;;;1.10;;
8319;SDS011;4197;42.130;24.746;2022-09-20T00:08:57;2.90;;;1.10;;
8319;SDS011;4197;42.130;24.746;2022-09-20T00:11:29;5.33;;;1.00;;
8319;SDS011;4197;42.130;24.746;2022-09-20T00:14:00;1.63;;;1.00;;
8319;SDS011;4197;42.130;24.746;2022-09-20T00:16:36;2.13;;;1.30;;
8319;SDS011;4197;42.130;24.746;2022-09-20T00:19:06;3.03;;;1.07;;
8319;SDS011;4197;42.130;24.746;2022-09-20T00:21:35;1.23;;;1.10;;
8319;SDS011;4197;42.130;24.746;2022-09-20T00:24:03;2.73;;;0.90;;
8319;SDS011;4197;42.130;24.746;2022-09-20T00:26:31;2.33;;;1.10;;
8319;SDS011;4197;42.130;24.746;2022-09-20T00:29:01;2.97;;;0.90;;
8319;SDS011;4197;42.130;24.746;2022-09-20T00:31:29;1.43;;;1.10;;
8319;SDS011;4197;42.130;24.746;2022-09-20T00:33:57;1.73;;;1.20;;
8319;SDS011;4197;42.130;24.746;2022-09-20T00:36:43;1.37;;;1.17;;
8319;SDS011;4197;42.130;24.746;2022-09-20T00:39:12;1.67;;;1.17;;
8319;SDS011;4197;42.130;24.746;2022-09-20T00:41:41;1.43;;;0.90;;
8319;SDS011;4197;42.130;24.746;2022-09-20T00:47:26;1.80;;;1.00;;
8319;SDS011;4197;42.130;24.746;2022-09-20T00:49:59;1.50;;;0.90;;
8319;SDS011;4197;42.130;24.746;2022-09-20T00:52:32;1.70;;;0.83;;
8319;SDS011;4197;42.130;24.746;2022-09-20T00:55:02;1.40;;;0.97;;
8319;SDS011;4197;42.130;24.746;2022-09-20T00:57:35;1.33;;;0.90;;
8319;SDS011;4197;42.130;24.746;2022-09-20T01:00:07;4.23;;;1.00;;
8319;SDS011;4197;42.130;24.746;2022-09-20T01:02:38;3.10;;;1.13;;
8319;SDS011;4197;42.130;24.746;2022-09-20T01:05:08;2.03;;;1.00;;
8319;SDS011;4197;42.130;24.746;2022-09-20T01:07:39;1.43;;;1.00;;
8319;SDS011;4197;42.130;24.746;2022-09-20T01:10:08;2.43;;;1.07;;
8319;SDS011;4197;42.130;24.746;2022-09-20T01:12:36;2.90;;;0.90;;
8319;SDS011;4197;42.130;24.746;2022-09-20T01:15:08;1.10;;;0.90;;
8319;SDS011;4197;42.130;24.746;2022-09-20T01:17:40;1.10;;;0.90;;
8319;SDS011;4197;42.130;24.746;2022-09-20T01:20:14;1.03;;;0.90;;
8319;SDS011;4197;42.130;24.746;2022-09-20T01:22:47;1.70;;;1.00;;
8319;SDS011;4197;42.130;24.746;2022-09-20T01:25:27;1.20;;;1.03;;
8319;SDS011;4197;42.130;24.746;2022-09-20T01:28:09;0.67;;;0.67;;
8319;SDS011;4197;42.130;24.746;2022-09-20T01:30:38;2.13;;;1.10;;
8319;SDS011;4197;42.130;24.746;2022-09-20T01:33:13;2.70;;;0.80;;
8319;SDS011;4197;42.130;24.746;2022-09-20T01:35:49;1.17;;;0.97;;
8319;SDS011;4197;42.130;24.746;2022-09-20T01:38:26;3.03;;;0.90;;
8319;SDS011;4197;42.130;24.746;2022-09-20T01:41:03;3.37;;;0.80;;
8319;SDS011;4197;42.130;24.746;2022-09-20T01:43:39;2.00;;;1.00;;
8319;SDS011;4197;42.130;24.746;2022-09-20T01:46:15;2.70;;;1.00;;
8319;SDS011;4197;42.130;24.746;2022-09-20T01:48:58;0.90;;;0.80;;
8319;SDS011;4197;42.130;24.746;2022-09-20T01:54:47;1.67;;;1.00;;
8319;SDS011;4197;42.130;24.746;2022-09-20T01:57:48;1.10;;;0.80;;
8319;SDS011;4197;42.130;24.746;2022-09-20T02:00:40;1.97;;;0.80;;
8319;SDS011;4197;42.130;24.746;2022-09-20T02:03:35;1.57;;;1.00;;
8319;SDS011;4197;42.130;24.746;2022-09-20T02:06:37;1.60;;;0.90;;
8319;SDS011;4197;42.130;24.746;2022-09-20T02:09:24;0.83;;;0.80;;
8319;SDS011;4197;42.130;24.746;2022-09-20T02:12:16;2.40;;;0.80;;
8319;SDS011;4197;42.130;24.746;2022-09-20T02:15:07;3.63;;;0.90;;
8319;SDS011;4197;42.130;24.746;2022-09-20T02:17:51;1.70;;;1.00;;
8319;SDS011;4197;42.130;24.746;2022-09-20T02:20:31;1.47;;;0.97;;
8319;SDS011;4197;42.130;24.746;2022-09-20T02:23:10;1.57;;;1.07;;
8319;SDS011;4197;42.130;24.746;2022-09-20T02:25:54;2.07;;;1.13;;
8319;SDS011;4197;42.130;24.746;2022-09-20T02:28:37;4.17;;;1.30;;
8319;SDS011;4197;42.130;24.746;2022-09-20T02:31:22;2.33;;;1.20;;
8319;SDS011;4197;42.130;24.746;2022-09-20T02:34:09;1.80;;;1.10;;
8319;SDS011;4197;42.130;24.746;2022-09-20T02:36:57;1.47;;;1.13;;
8319;SDS011;4197;42.130;24.746;2022-09-20T02:39:42;2.03;;;1.20;;
8319;SDS011;4197;42.130;24.746;2022-09-20T02:42:20;1.57;;;1.43;;
8319;SDS011;4197;42.130;24.746;2022-09-20T02:44:54;2.80;;;1.30;;
8319;SDS011;4197;42.130;24.746;2022-09-20T02:47:30;1.50;;;1.20;;
8319;SDS011;4197;42.130;24.746;2022-09-20T02:50:10;1.50;;;1.07;;
8319;SDS011;4197;42.130;24.746;2022-09-20T02:52:53;2.00;;;1.40;;
8319;SDS011;4197;42.130;24.746;2022-09-20T02:55:32;1.47;;;1.23;;
8319;SDS011;4197;42.130;24.746;2022-09-20T02:58:08;1.63;;;1.30;;
8319;SDS011;4197;42.130;24.746;2022-09-20T03:00:55;2.03;;;1.27;;
8319;SDS011;4197;42.130;24.746;2022-09-20T03:03:35;2.13;;;1.20;;
8319;SDS011;4197;42.130;24.746;2022-09-20T03:06:13;1.60;;;1.40;;
8319;SDS011;4197;42.130;24.746;2022-09-20T03:08:52;5.20;;;1.50;;
8319;SDS011;4197;42.130;24.746;2022-09-20T03:11:29;2.60;;;1.60;;
8319;SDS011;4197;42.130;24.746;2022-09-20T03:14:08;1.70;;;1.60;;
8319;SDS011;4197;42.130;24.746;2022-09-20T03:16:44;2.07;;;1.60;;
8319;SDS011;4197;42.130;24.746;2022-09-20T03:19:28;2.80;;;1.57;;
8319;SDS011;4197;42.130;24.746;2022-09-20T03:22:12;1.93;;;1.50;;
8319;SDS011;4197;42.130;24.746;2022-09-20T03:24:53;1.90;;;1.57;;
8319;SDS011;4197;42.130;24.746;2022-09-20T03:27:31;2.20;;;2.00;;
8319;SDS011;4197;42.130;24.746;2022-09-20T03:30:15;1.97;;;1.80;;
8319;SDS011;4197;42.130;24.746;2022-09-20T03:32:57;2.20;;;2.00;;
8319;SDS011;4197;42.130;24.746;2022-09-20T03:35:36;2.23;;;1.87;;
8319;SDS011;4197;42.130;24.746;2022-09-20T03:38:30;2.03;;;1.60;;
8319;SDS011;4197;42.130;24.746;2022-09-20T03:41:25;3.73;;;1.90;;
8319;SDS011;4197;42.130;24.746;2022-09-20T03:44:14;1.60;;;1.50;;
8319;SDS011;4197;42.130;24.746;2022-09-20T03:47:06;1.77;;;1.60;;
8319;SDS011;4197;42.130;24.746;2022-09-20T03:49:52;1.53;;;1.43;;
8319;SDS011;4197;42.130;24.746;2022-09-20T03:52:45;3.90;;;1.53;;
8319;SDS011;4197;42.130;24.746;2022-09-20T03:55:43;2.60;;;1.50;;
8319;SDS011;4197;42.130;24.746;2022-09-20T03:58:33;3.00;;;1.63;;
8319;SDS011;4197;42.130;24.746;2022-09-20T04:01:20;2.23;;;1.43;;
8319;SDS011;4197;42.130;24.746;2022-09-20T04:04:02;3.03;;;1.83;;
8319;SDS011;4197;42.130;24.746;2022-09-20T04:06:42;3.00;;;1.50;;
8319;SDS011;4197;42.130;24.746;2022-09-20T04:09:44;1.80;;;1.60;;
8319;SDS011;4197;42.130;24.746;2022-09-20T04:12:26;3.20;;;1.80;;
8319;SDS011;4197;42.130;24.746;2022-09-20T04:15:08;3.67;;;1.53;;
8319;SDS011;4197;42.130;24.746;2022-09-20T04:17:58;1.90;;;1.80;;
8319;SDS011;4197;42.130;24.746;2022-09-20T04:20:35;2.17;;;1.60;;
8319;SDS011;4197;42.130;24.746;2022-09-20T04:23:14;3.13;;;1.90;;
8319;SDS011;4197;42.130;24.746;2022-09-20T04:25:52;2.10;;;1.90;;
8319;SDS011;4197;42.130;24.746;2022-09-20T04:28:24;5.27;;;2.20;;
8319;SDS011;4197;42.130;24.746;2022-09-20T04:31:02;2.53;;;2.13;;
8319;SDS011;4197;42.130;24.746;2022-09-20T04:33:41;4.47;;;2.00;;
8319;SDS011;4197;42.130;24.746;2022-09-20T04:36:19;4.13;;;2.20;;
8319;SDS011;4197;42.130;24.746;2022-09-20T04:39:03;3.17;;;1.83;;
8319;SDS011;4197;42.130;24.746;2022-09-20T04:44:53;2.10;;;1.90;;
8319;SDS011;4197;42.130;24.746;2022-09-20T04:47:51;4.37;;;1.90;;
8319;SDS011;4197;42.130;24.746;2022-09-20T04:53:36;2.80;;;2.07;;
8319;SDS011;4197;42.130;24.746;2022-09-20T04:56:25;4.30;;;2.03;;
8319;SDS011;4197;42.130;24.746;2022-09-20T04:59:08;4.90;;;1.87;;
8319;SDS011;4197;42.130;24.746;2022-09-20T05:02:01;3.40;;;1.77;;
8319;SDS011;4197;42.130;24.746;2022-09-20T05:08:15;3.50;;;1.60;;
8319;SDS011;4197;42.130;24.746;2022-09-20T05:11:17;4.50;;;2.10;;
8319;SDS011;4197;42.130;24.746;2022-09-20T05:17:27;4.80;;;2.10;;
8319;SDS011;4197;42.130;24.746;2022-09-20T05:23:12;3.30;;;2.07;;
8319;SDS011;4197;42.130;24.746;2022-09-20T05:26:06;2.20;;;2.00;;
8319;SDS011;4197;42.130;24.746;2022-09-20T05:28:42;2.13;;;1.93;;
8319;SDS011;4197;42.130;24.746;2022-09-20T05:31:19;2.97;;;1.93;;
8319;SDS011;4197;42.130;24.746;2022-09-20T05:33:55;4.93;;;2.13;;
8319;SDS011;4197;42.130;24.746;2022-09-20T05:36:35;2.40;;;1.87;;
8319;SDS011;4197;42.130;24.746;2022-09-20T05:39:15;2.67;;;2.00;;
8319;SDS011;4197;42.130;24.746;2022-09-20T05:41:55;1.83;;;1.70;;
8319;SDS011;4197;42.130;24.746;2022-09-20T05:44:30;2.63;;;2.10;;
8319;SDS011;4197;42.130;24.746;2022-09-20T05:47:10;2.37;;;1.97;;
8319;SDS011;4197;42.130;24.746;2022-09-20T05:49:49;3.37;;;2.23;;
8319;SDS011;4197;42.130;24.746;2022-09-20T05:52:34;5.77;;;2.50;;
8319;SDS011;4197;42.130;24.746;2022-09-20T05:55:15;3.30;;;2.23;;
8319;SDS011;4197;42.130;24.746;2022-09-20T05:58:15;7.63;;;2.10;;
8319;SDS011;4197;42.130;24.746;2022-09-20T06:00:51;2.87;;;2.43;;
8319;SDS011;4197;42.130;24.746;2022-09-20T06:03:28;3.77;;;1.97;;
8319;SDS011;4197;42.130;24.746;2022-09-20T06:06:09;2.57;;;2.20;;
8319;SDS011;4197;42.130;24.746;2022-09-20T06:11:56;3.37;;;2.30;;
8319;SDS011;4197;42.130;24.746;2022-09-20T06:14:42;2.50;;;2.27;;
8319;SDS011;4197;42.130;24.746;2022-09-20T06:17:23;2.73;;;2.00;;
8319;SDS011;4197;42.130;24.746;2022-09-20T06:20:01;2.53;;;2.00;;
8319;SDS011;4197;42.130;24.746;2022-09-20T06:22:41;3.67;;;1.87;;
8319;SDS011;4197;42.130;24.746;2022-09-20T06:25:14;2.70;;;1.90;;
8319;SDS011;4197;42.130;24.746;2022-09-20T06:27:48;3.83;;;1.97;;
8319;SDS011;4197;42.130;24.746;2022-09-20T06:30:21;6.33;;;2.40;;
8319;SDS011;4197;42.130;24.746;2022-09-20T06:32:58;2.13;;;1.77;;
8319;SDS011;4197;42.130;24.746;2022-09-20T06:35:30;1.97;;;1.70;;
8319;SDS011;4197;42.130;24.746;2022-09-20T06:38:10;1.70;;;1.60;;
8319;SDS011;4197;42.130;24.746;2022-09-20T06:41:13;7.50;;;2.10;;
8319;SDS011;4197;42.130;24.746;2022-09-20T06:43:55;2.50;;;2.00;;
8319;SDS011;4197;42.130;24.746;2022-09-20T06:46:25;4.17;;;2.00;;
8319;SDS011;4197;42.130;24.746;2022-09-20T06:48:54;4.13;;;1.70;;
8319;SDS011;4197;42.130;24.746;2022-09-20T06:51:23;2.10;;;1.90;;
8319;SDS011;4197;42.130;24.746;2022-09-20T06:53:55;3.30;;;1.80;;
8319;SDS011;4197;42.130;24.746;2022-09-20T06:56:24;3.73;;;1.83;;
8319;SDS011;4197;42.130;24.746;2022-09-20T06:58:55;2.50;;;1.83;;
8319;SDS011;4197;42.130;24.746;2022-09-20T07:01:23;2.83;;;1.60;;
8319;SDS011;4197;42.130;24.746;2022-09-20T07:03:56;2.30;;;2.07;;
8319;SDS011;4197;42.130;24.746;2022-09-20T07:06:25;2.27;;;1.60;;
8319;SDS011;4197;42.130;24.746;2022-09-20T07:08:55;2.43;;;2.07;;
8319;SDS011;4197;42.130;24.746;2022-09-20T07:11:23;2.77;;;1.90;;
8319;SDS011;4197;42.130;24.746;2022-09-20T07:13:53;2.07;;;1.87;;
8319;SDS011;4197;42.130;24.746;2022-09-20T07:16:24;1.90;;;1.60;;
8319;SDS011;4197;42.130;24.746;2022-09-20T07:18:52;1.77;;;1.60;;
8319;SDS011;4197;42.130;24.746;2022-09-20T07:21:22;4.47;;;1.60;;
8319;SDS011;4197;42.130;24.746;2022-09-20T07:23:51;2.30;;;1.60;;
8319;SDS011;4197;42.130;24.746;2022-09-20T07:26:21;2.20;;;1.40;;
8319;SDS011;4197;42.130;24.746;2022-09-20T07:28:52;2.33;;;2.03;;
8319;SDS011;4197;42.130;24.746;2022-09-20T07:31:21;2.47;;;1.80;;
8319;SDS011;4197;42.130;24.746;2022-09-20T07:33:51;1.77;;;1.67;;
8319;SDS011;4197;42.130;24.746;2022-09-20T07:36:19;5.00;;;1.60;;
8319;SDS011;4197;42.130;24.746;2022-09-20T07:38:47;4.90;;;1.83;;
8319;SDS011;4197;42.130;24.746;2022-09-20T07:41:17;1.70;;;1.60;;
8319;SDS011;4197;42.130;24.746;2022-09-20T07:43:47;3.83;;;1.50;;
8319;SDS011;4197;42.130;24.746;2022-09-20T07:46:16;3.50;;;1.20;;
8319;SDS011;4197;42.130;24.746;2022-09-20T07:48:47;3.93;;;1.80;;
8319;SDS011;4197;42.130;24.746;2022-09-20T07:51:15;1.67;;;1.17;;
8319;SDS011;4197;42.130;24.746;2022-09-20T07:53:44;6.27;;;1.40;;
8319;SDS011;4197;42.130;24.746;2022-09-20T07:56:12;1.40;;;1.30;;
8319;SDS011;4197;42.130;24.746;2022-09-20T07:58:41;2.60;;;1.40;;
8319;SDS011;4197;42.130;24.746;2022-09-20T08:01:18;2.00;;;1.43;;
8319;SDS011;4197;42.130;24.746;2022-09-20T08:03:48;3.53;;;1.30;;
8319;SDS011;4197;42.130;24.746;2022-09-20T08:06:17;1.57;;;1.10;;
8319;SDS011;4197;42.130;24.746;2022-09-20T08:08:46;2.03;;;1.50;;
8319;SDS011;4197;42.130;24.746;2022-09-20T08:11:16;1.60;;;1.50;;
8319;SDS011;4197;42.130;24.746;2022-09-20T08:13:46;2.17;;;1.20;;
8319;SDS011;4197;42.130;24.746;2022-09-20T08:16:37;9.10;;;1.98;;
8319;SDS011;4197;42.130;24.746;2022-09-20T08:19:07;7.03;;;1.47;;
8319;SDS011;4197;42.130;24.746;2022-09-20T08:21:40;2.60;;;1.53;;
8319;SDS011;4197;42.130;24.746;2022-09-20T08:24:08;2.13;;;1.40;;
8319;SDS011;4197;42.130;24.746;2022-09-20T08:26:36;3.03;;;1.15;;
8319;SDS011;4197;42.130;24.746;2022-09-20T08:29:04;4.77;;;1.57;;
8319;SDS011;4197;42.130;24.746;2022-09-20T08:31:33;2.67;;;1.30;;
8319;SDS011;4197;42.130;24.746;2022-09-20T08:34:08;2.55;;;1.75;;
8319;SDS011;4197;42.130;24.746;2022-09-20T08:36:39;3.97;;;1.30;;
8319;SDS011;4197;42.130;24.746;2022-09-20T08:39:11;1.85;;;1.30;;
8319;SDS011;4197;42.130;24.746;2022-09-20T08:42:02;4.13;;;1.52;;
8319;SDS011;4197;42.130;24.746;2022-09-20T08:44:41;3.22;;;1.15;;
8319;SDS011;4197;42.130;24.746;2022-09-20T08:47:25;4.07;;;1.10;;
8319;SDS011;4197;42.130;24.746;2022-09-20T08:49:56;3.15;;;1.10;;
8319;SDS011;4197;42.130;24.746;2022-09-20T08:52:26;2.60;;;1.00;;
8319;SDS011;4197;42.130;24.746;2022-09-20T08:55:02;1.13;;;1.00;;
8319;SDS011;4197;42.130;24.746;2022-09-20T08:57:40;3.22;;;0.95;;
8319;SDS011;4197;42.130;24.746;2022-09-20T09:00:10;6.60;;;1.10;;
8319;SDS011;4197;42.130;24.746;2022-09-20T09:02:45;1.98;;;0.90;;
8319;SDS011;4197;42.130;24.746;2022-09-20T09:05:25;1.08;;;0.80;;
8319;SDS011;4197;42.130;24.746;2022-09-20T09:07:58;4.57;;;1.00;;
8319;SDS011;4197;42.130;24.746;2022-09-20T09:10:32;2.97;;;0.80;;
8319;SDS011;4197;42.130;24.746;2022-09-20T09:13:09;2.75;;;1.00;;
8319;SDS011;4197;42.130;24.746;2022-09-20T09:15:44;1.05;;;0.75;;
8319;SDS011;4197;42.130;24.746;2022-09-20T09:18:21;0.98;;;0.85;;
8319;SDS011;4197;42.130;24.746;2022-09-20T09:20:57;1.35;;;0.82;;
8319;SDS011;4197;42.130;24.746;2022-09-20T09:23:25;2.08;;;0.80;;
8319;SDS011;4197;42.130;24.746;2022-09-20T09:25:57;1.70;;;1.00;;
8319;SDS011;4197;42.130;24.746;2022-09-20T09:28:30;2.78;;;0.98;;
8319;SDS011;4197;42.130;24.746;2022-09-20T09:31:13;1.00;;;0.80;;
8319;SDS011;4197;42.130;24.746;2022-09-20T09:33:49;3.65;;;0.82;;
8319;SDS011;4197;42.130;24.746;2022-09-20T09:36:20;1.73;;;1.02;;
8319;SDS011;4197;42.130;24.746;2022-09-20T09:39:12;1.02;;;0.80;;
8319;SDS011;4197;42.130;24.746;2022-09-20T09:41:42;2.30;;;0.60;;
8319;SDS011;4197;42.130;24.746;2022-09-20T09:44:19;0.85;;;0.70;;
8319;SDS011;4197;42.130;24.746;2022-09-20T09:46:49;1.25;;;0.70;;
8319;SDS011;4197;42.130;24.746;2022-09-20T09:49:20;0.80;;;0.60;;
8319;SDS011;4197;42.130;24.746;2022-09-20T09:51:59;0.65;;;0.60;;
8319;SDS011;4197;42.130;24.746;2022-09-20T09:54:32;1.55;;;0.90;;
8319;SDS011;4197;42.130;24.746;2022-09-20T10:00:02;3.78;;;0.98;;
8319;SDS011;4197;42.130;24.746;2022-09-20T10:02:58;3.42;;;0.77;;
8319;SDS011;4197;42.130;24.746;2022-09-20T10:05:45;1.38;;;1.00;;
8319;SDS011;4197;42.130;24.746;2022-09-20T10:08:28;3.40;;;0.85;;
8319;SDS011;4197;42.130;24.746;2022-09-20T10:11:06;0.63;;;0.50;;
8319;SDS011;4197;42.130;24.746;2022-09-20T10:13:44;0.65;;;0.60;;
8319;SDS011;4197;42.130;24.746;2022-09-20T10:16:26;1.20;;;0.50;;
8319;SDS011;4197;42.130;24.746;2022-09-20T10:19:08;1.05;;;0.65;;
8319;SDS011;4197;42.130;24.746;2022-09-20T10:21:50;2.70;;;0.60;;
8319;SDS011;4197;42.130;24.746;2022-09-20T10:24:30;0.88;;;0.60;;
8319;SDS011;4197;42.130;24.746;2022-09-20T10:27:18;1.25;;;0.60;;
8319;SDS011;4197;42.130;24.746;2022-09-20T10:30:01;1.25;;;0.77;;
8319;SDS011;4197;42.130;24.746;2022-09-20T10:32:41;1.92;;;0.80;;
8319;SDS011;4197;42.130;24.746;2022-09-20T10:35:24;0.60;;;0.60;;
8319;SDS011;4197;42.130;24.746;2022-09-20T10:38:04;3.08;;;0.80;;
8319;SDS011;4197;42.130;24.746;2022-09-20T10:40:41;0.93;;;0.50;;
8319;SDS011;4197;42.130;24.746;2022-09-20T10:43:44;2.10;;;0.70;;
8319;SDS011;4197;42.130;24.746;2022-09-20T10:46:32;1.10;;;0.60;;
8319;SDS011;4197;42.130;24.746;2022-09-20T10:49:17;1.42;;;0.50;;
8319;SDS011;4197;42.130;24.746;2022-09-20T10:51:53;1.30;;;0.63;;
8319;SDS011;4197;42.130;24.746;2022-09-20T10:54:37;4.00;;;0.60;;
8319;SDS011;4197;42.130;24.746;2022-09-20T10:57:25;0.55;;;0.50;;
8319;SDS011;4197;42.130;24.746;2022-09-20T11:00:17;1.75;;;0.70;;
8319;SDS011;4197;42.130;24.746;2022-09-20T11:02:54;1.25;;;0.60;;
8319;SDS011;4197;42.130;24.746;2022-09-20T11:05:42;0.65;;;0.60;;
8319;SDS011;4197;42.130;24.746;2022-09-20T11:08:21;2.15;;;0.45;;
8319;SDS011;4197;42.130;24.746;2022-09-20T11:10:54;2.95;;;0.80;;
8319;SDS011;4197;42.130;24.746;2022-09-20T11:13:29;2.55;;;0.77;;
8319;SDS011;4197;42.130;24.746;2022-09-20T11:16:05;1.25;;;0.60;;
8319;SDS011;4197;42.130;24.746;2022-09-20T11:18:41;2.15;;;0.60;;
8319;SDS011;4197;42.130;24.746;2022-09-20T11:21:18;4.55;;;0.77;;
8319;SDS011;4197;42.130;24.746;2022-09-20T11:23:53;0.60;;;0.50;;
8319;SDS011;4197;42.130;24.746;2022-09-20T11:26:29;1.30;;;0.57;;
8319;SDS011;4197;42.130;24.746;2022-09-20T11:29:02;0.95;;;0.60;;
8319;SDS011;4197;42.130;24.746;2022-09-20T11:31:38;0.80;;;0.40;;
8319;SDS011;4197;42.130;24.746;2022-09-20T11:34:09;2.58;;;0.70;;
8319;SDS011;4197;42.130;24.746;2022-09-20T11:36:46;1.50;;;0.63;;
8319;SDS011;4197;42.130;24.746;2022-09-20T11:39:20;4.15;;;0.60;;
8319;SDS011;4197;42.130;24.746;2022-09-20T11:41:54;0.55;;;0.50;;
8319;SDS011;4197;42.130;24.746;2022-09-20T11:44:25;1.00;;;0.60;;
8319;SDS011;4197;42.130;24.746;2022-09-20T11:46:54;0.82;;;0.50;;
8319;SDS011;4197;42.130;24.746;2022-09-20T11:49:28;0.65;;;0.40;;
8319;SDS011;4197;42.130;24.746;2022-09-20T11:52:19;0.60;;;0.50;;
8319;SDS011;4197;42.130;24.746;2022-09-20T11:55:13;1.88;;;0.60;;
8319;SDS011;4197;42.130;24.746;2022-09-20T11:57:58;2.83;;;1.35;;
8319;SDS011;4197;42.130;24.746;2022-09-20T12:00:29;2.53;;;0.40;;
8319;SDS011;4197;42.130;24.746;2022-09-20T12:03:00;1.83;;;0.60;;
8319;SDS011;4197;42.130;24.746;2022-09-20T12:05:33;1.05;;;0.50;;
8319;SDS011;4197;42.130;24.746;2022-09-20T12:08:05;0.60;;;0.50;;
8319;SDS011;4197;42.130;24.746;2022-09-20T12:10:35;0.57;;;0.40;;
8319;SDS011;4197;42.130;24.746;2022-09-20T12:13:17;1.88;;;0.50;;
8319;SDS011;4197;42.130;24.746;2022-09-20T12:15:55;0.70;;;0.50;;
8319;SDS011;4197;42.130;24.746;2022-09-20T12:18:37;1.70;;;0.50;;
8319;SDS011;4197;42.130;24.746;2022-09-20T12:21:14;10.05;;;0.75;;
8319;SDS011;4197;42.130;24.746;2022-09-20T12:26:50;3.63;;;0.98;;
8319;SDS011;4197;42.130;24.746;2022-09-20T12:38:27;4.97;;;1.27;;
8319;SDS011;4197;42.130;24.746;2022-09-20T12:41:07;1.50;;;0.60;;
8319;SDS011;4197;42.130;24.746;2022-09-20T12:44:00;0.73;;;0.47;;
8319;SDS011;4197;42.130;24.746;2022-09-20T12:46:34;0.45;;;0.45;;
8319;SDS011;4197;42.130;24.746;2022-09-20T12:49:20;1.77;;;0.57;;
8319;SDS011;4197;42.130;24.746;2022-09-20T12:52:28;1.98;;;0.70;;
8319;SDS011;4197;42.130;24.746;2022-09-20T12:58:24;1.98;;;0.63;;
8319;SDS011;4197;42.130;24.746;2022-09-20T13:03:59;2.25;;;0.57;;
8319;SDS011;4197;42.130;24.746;2022-09-20T13:10:16;1.92;;;0.50;;
8319;SDS011;4197;42.130;24.746;2022-09-20T13:12:59;0.30;;;0.30;;
8319;SDS011;4197;42.130;24.746;2022-09-20T13:15:31;1.13;;;0.50;;
8319;SDS011;4197;42.130;24.746;2022-09-20T13:18:00;2.47;;;0.50;;
8319;SDS011;4197;42.130;24.746;2022-09-20T13:20:30;2.17;;;0.50;;
8319;SDS011;4197;42.130;24.746;2022-09-20T13:23:01;0.85;;;0.40;;
8319;SDS011;4197;42.130;24.746;2022-09-20T13:25:32;1.90;;;0.63;;
8319;SDS011;4197;42.130;24.746;2022-09-20T13:28:04;1.90;;;0.40;;
8319;SDS011;4197;42.130;24.746;2022-09-20T13:30:35;0.60;;;0.40;;
8319;SDS011;4197;42.130;24.746;2022-09-20T13:33:14;1.60;;;0.60;;
8319;SDS011;4197;42.130;24.746;2022-09-20T13:35:45;2.63;;;0.60;;
8319;SDS011;4197;42.130;24.746;2022-09-20T13:38:17;2.60;;;0.60;;
8319;SDS011;4197;42.130;24.746;2022-09-20T13:40:48;2.78;;;0.50;;
8319;SDS011;4197;42.130;24.746;2022-09-20T13:43:25;2.22;;;0.40;;
8319;SDS011;4197;42.130;24.746;2022-09-20T13:45:56;2.45;;;0.55;;
8319;SDS011;4197;42.130;24.746;2022-09-20T13:48:27;1.65;;;0.60;;
8319;SDS011;4197;42.130;24.746;2022-09-20T13:50:58;1.23;;;0.50;;
8319;SDS011;4197;42.130;24.746;2022-09-20T13:53:27;2.45;;;0.60;;
8319;SDS011;4197;42.130;24.746;2022-09-20T13:56:15;0.57;;;0.45;;
8319;SDS011;4197;42.130;24.746;2022-09-20T13:58:47;2.80;;;0.60;;
8319;SDS011;4197;42.130;24.746;2022-09-20T14:01:20;0.70;;;0.50;;
8319;SDS011;4197;42.130;24.746;2022-09-20T14:03:54;1.35;;;0.80;;
8319;SDS011;4197;42.130;24.746;2022-09-20T14:06:29;1.10;;;0.75;;
8319;SDS011;4197;42.130;24.746;2022-09-20T14:08:58;1.30;;;0.40;;
8319;SDS011;4197;42.130;24.746;2022-09-20T14:11:35;1.40;;;0.50;;
8319;SDS011;4197;42.130;24.746;2022-09-20T14:14:04;1.63;;;0.80;;
8319;SDS011;4197;42.130;24.746;2022-09-20T14:16:37;0.70;;;0.55;;
8319;SDS011;4197;42.130;24.746;2022-09-20T14:19:11;1.80;;;0.80;;
8319;SDS011;4197;42.130;24.746;2022-09-20T14:21:43;1.05;;;0.60;;
8319;SDS011;4197;42.130;24.746;2022-09-20T14:24:28;1.40;;;0.50;;
8319;SDS011;4197;42.130;24.746;2022-09-20T14:27:03;2.05;;;0.85;;
8319;SDS011;4197;42.130;24.746;2022-09-20T14:29:41;3.40;;;0.82;;
8319;SDS011;4197;42.130;24.746;2022-09-20T14:32:18;0.40;;;0.40;;
8319;SDS011;4197;42.130;24.746;2022-09-20T14:34:57;2.28;;;0.47;;
8319;SDS011;4197;42.130;24.746;2022-09-20T14:37:32;1.95;;;0.40;;
8319;SDS011;4197;42.130;24.746;2022-09-20T14:40:15;0.90;;;0.55;;
8319;SDS011;4197;42.130;24.746;2022-09-20T14:42:46;2.10;;;0.80;;
8319;SDS011;4197;42.130;24.746;2022-09-20T14:45:20;1.05;;;0.60;;
8319;SDS011;4197;42.130;24.746;2022-09-20T14:47:54;1.02;;;0.50;;
8319;SDS011;4197;42.130;24.746;2022-09-20T14:50:25;0.60;;;0.50;;
8319;SDS011;4197;42.130;24.746;2022-09-20T14:53:17;0.38;;;0.30;;
8319;SDS011;4197;42.130;24.746;2022-09-20T14:55:54;1.70;;;0.60;;
8319;SDS011;4197;42.130;24.746;2022-09-20T15:01:31;1.52;;;0.80;;
8319;SDS011;4197;42.130;24.746;2022-09-20T15:04:04;2.28;;;0.55;;
8319;SDS011;4197;42.130;24.746;2022-09-20T15:06:35;1.73;;;0.50;;
8319;SDS011;4197;42.130;24.746;2022-09-20T15:09:07;2.70;;;0.60;;
8319;SDS011;4197;42.130;24.746;2022-09-20T15:11:38;0.70;;;0.50;;
8319;SDS011;4197;42.130;24.746;2022-09-20T15:14:07;0.63;;;0.60;;
8319;SDS011;4197;42.130;24.746;2022-09-20T15:16:35;3.00;;;1.42;;
8319;SDS011;4197;42.130;24.746;2022-09-20T15:19:04;2.85;;;0.40;;
8319;SDS011;4197;42.130;24.746;2022-09-20T15:21:33;0.65;;;0.40;;
8319;SDS011;4197;42.130;24.746;2022-09-20T15:24:02;1.88;;;0.60;;
8319;SDS011;4197;42.130;24.746;2022-09-20T15:26:32;0.77;;;0.70;;
8319;SDS011;4197;42.130;24.746;2022-09-20T15:29:00;3.22;;;1.02;;
8319;SDS011;4197;42.130;24.746;2022-09-20T15:31:29;2.22;;;0.73;;
8319;SDS011;4197;42.130;24.746;2022-09-20T15:33:57;0.95;;;0.55;;
8319;SDS011;4197;42.130;24.746;2022-09-20T15:36:25;1.55;;;0.70;;
8319;SDS011;4197;42.130;24.746;2022-09-20T15:38:57;0.73;;;0.70;;
8319;SDS011;4197;42.130;24.746;2022-09-20T15:41:25;2.08;;;0.80;;
8319;SDS011;4197;42.130;24.746;2022-09-20T15:43:58;1.23;;;0.60;;
8319;SDS011;4197;42.130;24.746;2022-09-20T15:46:27;2.38;;;0.45;;
8319;SDS011;4197;42.130;24.746;2022-09-20T15:48:55;1.75;;;0.77;;
8319;SDS011;4197;42.130;24.746;2022-09-20T15:51:25;0.85;;;0.50;;
8319;SDS011;4197;42.130;24.746;2022-09-20T15:53:56;1.77;;;0.93;;
8319;SDS011;4197;42.130;24.746;2022-09-20T15:56:27;2.42;;;0.90;;
8319;SDS011;4197;42.130;24.746;2022-09-20T15:58:58;2.08;;;0.60;;
8319;SDS011;4197;42.130;24.746;2022-09-20T16:01:29;2.28;;;1.02;;
8319;SDS011;4197;42.130;24.746;2022-09-20T16:04:03;0.73;;;0.70;;
8319;SDS011;4197;42.130;24.746;2022-09-20T16:06:33;0.90;;;0.73;;
8319;SDS011;4197;42.130;24.746;2022-09-20T16:09:02;0.63;;;0.50;;
8319;SDS011;4197;42.130;24.746;2022-09-20T16:11:30;1.60;;;0.80;;
8319;SDS011;4197;42.130;24.746;2022-09-20T16:13:59;1.73;;;0.68;;
8319;SDS011;4197;42.130;24.746;2022-09-20T16:16:28;3.90;;;0.90;;
8319;SDS011;4197;42.130;24.746;2022-09-20T16:19:04;3.95;;;0.98;;
8319;SDS011;4197;42.130;24.746;2022-09-20T16:21:50;3.13;;;0.93;;
8319;SDS011;4197;42.130;24.746;2022-09-20T16:24:25;1.13;;;0.80;;
8319;SDS011;4197;42.130;24.746;2022-09-20T16:26:54;0.93;;;0.82;;
8319;SDS011;4197;42.130;24.746;2022-09-20T16:29:24;0.93;;;0.70;;
8319;SDS011;4197;42.130;24.746;2022-09-20T16:31:54;2.28;;;0.85;;
8319;SDS011;4197;42.130;24.746;2022-09-20T16:34:24;3.25;;;1.13;;
8319;SDS011;4197;42.130;24.746;2022-09-20T16:36:55;1.20;;;0.70;;
8319;SDS011;4197;42.130;24.746;2022-09-20T16:39:25;2.15;;;0.88;;
8319;SDS011;4197;42.130;24.746;2022-09-20T16:41:54;3.55;;;1.00;;
8319;SDS011;4197;42.130;24.746;2022-09-20T16:44:26;2.50;;;1.05;;
8319;SDS011;4197;42.130;24.746;2022-09-20T16:46:54;1.40;;;1.05;;
8319;SDS011;4197;42.130;24.746;2022-09-20T16:49:23;2.47;;;1.13;;
8319;SDS011;4197;42.130;24.746;2022-09-20T16:51:54;2.70;;;0.90;;